createdAt,value
2018-09-16T00:00:10.329Z,1016.1
2018-09-16T00:01:12.808Z,1016.1
2018-09-16T00:02:15.011Z,1016.2
2018-09-16T00:03:17.283Z,1016.1
2018-09-16T00:04:19.508Z,1016.1
2018-09-16T00:05:21.620Z,1016.1
2018-09-16T00:06:24.105Z,1016.1
2018-09-16T00:07:26.218Z,1016.1
2018-09-16T00:08:28.322Z,1016.1
2018-09-16T00:09:30.406Z,1016.1
2018-09-16T00:10:32.498Z,1016.1
2018-09-16T00:11:34.595Z,1016.1
2018-09-16T00:12:36.688Z,1016.1
2018-09-16T00:13:38.793Z,1016.1
2018-09-16T00:14:40.950Z,1016.1
2018-09-16T00:15:42.977Z,1016.1
2018-09-16T00:16:45.071Z,1016.1
2018-09-16T00:17:47.173Z,1016.1
2018-09-16T00:18:49.258Z,1016.2
2018-09-16T00:19:51.356Z,1016.1
2018-09-16T00:20:53.771Z,1016.1
2018-09-16T00:21:55.856Z,1016.1
2018-09-16T00:22:57.962Z,1016.1
2018-09-16T00:24:00.439Z,1016.1
2018-09-16T00:25:02.830Z,1016.1
2018-09-16T00:26:05.206Z,1016.1
2018-09-16T00:27:07.612Z,1016
2018-09-16T00:28:10.040Z,1016.1
2018-09-16T00:29:12.316Z,1016
2018-09-16T00:30:14.833Z,1016
2018-09-16T00:31:16.910Z,1016
2018-09-16T00:32:19.014Z,1016
2018-09-16T00:33:21.110Z,1016
2018-09-16T00:34:23.210Z,1016
2018-09-16T00:35:25.294Z,1016
2018-09-16T00:36:27.396Z,1016
2018-09-16T00:37:29.486Z,1016
2018-09-16T00:38:31.863Z,1016
2018-09-16T00:39:34.364Z,1016
2018-09-16T00:40:36.745Z,1016
2018-09-16T00:41:38.834Z,1016
2018-09-16T00:42:40.930Z,1016
2018-09-16T00:43:43.018Z,1016.1
2018-09-16T00:44:45.106Z,1016.1
2018-09-16T00:45:47.202Z,1016.1
2018-09-16T00:46:49.283Z,1016.1
2018-09-16T00:47:51.377Z,1016.1
2018-09-16T00:48:53.483Z,1016.1
2018-09-16T00:49:55.578Z,1016.1
2018-09-16T00:50:57.663Z,1016.1
2018-09-16T00:51:59.772Z,1016.1
2018-09-16T00:53:01.863Z,1016.1
2018-09-16T00:54:03.951Z,1016.1
2018-09-16T00:55:06.353Z,1016.1
2018-09-16T00:56:08.434Z,1016.1
2018-09-16T00:57:10.542Z,1016
2018-09-16T00:58:12.638Z,1016.1
2018-09-16T00:59:14.988Z,1016
2018-09-16T01:00:17.348Z,1016
2018-09-16T01:01:19.837Z,1016
2018-09-16T01:02:21.935Z,1016
2018-09-16T01:03:24.311Z,1016
2018-09-16T01:04:26.421Z,1016
2018-09-16T01:05:29.184Z,1016
2018-09-16T01:06:31.283Z,1016
2018-09-16T01:07:33.378Z,1016
2018-09-16T01:08:35.767Z,1016
2018-09-16T01:09:37.849Z,1016
2018-09-16T01:10:39.950Z,1016
2018-09-16T01:11:42.042Z,1016
2018-09-16T01:12:44.508Z,1015.9
2018-09-16T01:13:46.611Z,1016
2018-09-16T01:14:48.708Z,1015.9
2018-09-16T01:15:50.810Z,1015.9
2018-09-16T01:16:52.907Z,1015.9
2018-09-16T01:17:55.287Z,1015.9
2018-09-16T01:18:57.386Z,1016
2018-09-16T01:19:59.472Z,1015.9
2018-09-16T01:21:01.953Z,1015.9
2018-09-16T01:22:04.363Z,1016
2018-09-16T01:23:06.851Z,1016
2018-09-16T01:24:09.455Z,1016
2018-09-16T01:25:11.554Z,1015.9
2018-09-16T01:26:13.641Z,1015.9
2018-09-16T01:27:15.727Z,1015.9
2018-09-16T01:28:18.225Z,1015.9
2018-09-16T01:29:20.305Z,1015.9
2018-09-16T01:30:22.794Z,1015.9
2018-09-16T01:31:24.886Z,1015.9
2018-09-16T01:32:26.995Z,1015.9
2018-09-16T01:33:29.073Z,1015.9
2018-09-16T01:34:31.183Z,1015.9
2018-09-16T01:35:34.174Z,1015.9
2018-09-16T01:36:36.256Z,1015.8
2018-09-16T01:37:38.360Z,1015.8
2018-09-16T01:38:40.444Z,1015.8
2018-09-16T01:39:42.544Z,1015.8
2018-09-16T01:40:44.633Z,1015.8
2018-09-16T01:41:47.139Z,1015.8
2018-09-16T01:42:49.226Z,1015.8
2018-09-16T01:43:51.328Z,1015.7
2018-09-16T01:44:53.744Z,1015.7
2018-09-16T01:45:55.826Z,1015.7
2018-09-16T01:46:57.928Z,1015.7
2018-09-16T01:48:00.019Z,1015.7
2018-09-16T01:49:02.098Z,1015.7
2018-09-16T01:50:04.191Z,1015.7
2018-09-16T01:51:06.294Z,1015.7
2018-09-16T01:52:08.765Z,1015.7
2018-09-16T01:53:11.546Z,1015.7
2018-09-16T01:54:13.636Z,1015.8
2018-09-16T01:55:16.026Z,1015.7
2018-09-16T01:56:18.115Z,1015.7
2018-09-16T01:57:20.214Z,1015.7
2018-09-16T01:58:22.293Z,1015.8
2018-09-16T01:59:24.802Z,1015.7
2018-09-16T02:00:26.893Z,1015.7
2018-09-16T02:01:28.978Z,1015.8
2018-09-16T02:02:31.088Z,1015.7
2018-09-16T02:03:33.182Z,1015.7
2018-09-16T02:04:35.280Z,1015.7
2018-09-16T02:05:37.362Z,1015.7
2018-09-16T02:06:39.463Z,1015.7
2018-09-16T02:07:41.549Z,1015.7
2018-09-16T02:08:43.640Z,1015.7
2018-09-16T02:09:45.741Z,1015.7
2018-09-16T02:10:47.821Z,1015.6
2018-09-16T02:11:50.329Z,1015.7
2018-09-16T02:12:52.429Z,1015.6
2018-09-16T02:13:55.108Z,1015.7
2018-09-16T02:14:57.189Z,1015.7
2018-09-16T02:15:59.301Z,1015.7
2018-09-16T02:17:01.383Z,1015.7
2018-09-16T02:18:03.774Z,1015.7
2018-09-16T02:19:05.879Z,1015.7
2018-09-16T02:20:07.961Z,1015.7
2018-09-16T02:21:10.050Z,1015.7
2018-09-16T02:22:12.153Z,1015.7
2018-09-16T02:23:14.244Z,1015.7
2018-09-16T02:24:16.325Z,1015.7
2018-09-16T02:25:18.422Z,1015.7
2018-09-16T02:26:20.504Z,1015.7
2018-09-16T02:27:22.590Z,1015.7
2018-09-16T02:28:24.689Z,1015.7
2018-09-16T02:29:27.073Z,1015.7
2018-09-16T02:30:29.178Z,1015.7
2018-09-16T02:31:31.257Z,1015.7
2018-09-16T02:32:33.350Z,1015.7
2018-09-16T02:33:35.447Z,1015.7
2018-09-16T02:34:37.539Z,1015.7
2018-09-16T02:35:39.643Z,1015.7
2018-09-16T02:36:41.751Z,1015.7
2018-09-16T02:37:43.834Z,1015.7
2018-09-16T02:38:46.205Z,1015.7
2018-09-16T02:39:48.699Z,1015.7
2018-09-16T02:40:50.784Z,1015.7
2018-09-16T02:41:52.881Z,1015.7
2018-09-16T02:42:55.375Z,1015.7
2018-09-16T02:43:57.740Z,1015.7
2018-09-16T02:45:00.134Z,1015.7
2018-09-16T02:46:02.230Z,1015.7
2018-09-16T02:47:04.619Z,1015.7
2018-09-16T02:48:06.703Z,1015.7
2018-09-16T02:49:09.092Z,1015.7
2018-09-16T02:50:11.179Z,1015.7
2018-09-16T02:51:13.658Z,1015.7
2018-09-16T02:52:15.773Z,1015.7
2018-09-16T02:53:17.856Z,1015.7
2018-09-16T02:54:19.950Z,1015.7
2018-09-16T02:55:22.048Z,1015.6
2018-09-16T02:56:24.133Z,1015.6
2018-09-16T02:57:26.222Z,1015.6
2018-09-16T02:58:28.611Z,1015.6
2018-09-16T02:59:30.694Z,1015.7
2018-09-16T03:00:32.809Z,1015.7
2018-09-16T03:01:34.895Z,1015.7
2018-09-16T03:02:36.982Z,1015.7
2018-09-16T03:03:39.353Z,1015.7
2018-09-16T03:04:41.762Z,1015.7
2018-09-16T03:05:43.853Z,1015.7
2018-09-16T03:06:46.360Z,1015.7
2018-09-16T03:07:48.457Z,1015.7
2018-09-16T03:08:50.534Z,1015.7
2018-09-16T03:09:53.022Z,1015.7
2018-09-16T03:10:55.114Z,1015.7
2018-09-16T03:11:57.226Z,1015.7
2018-09-16T03:12:59.313Z,1015.7
2018-09-16T03:14:01.711Z,1015.7
2018-09-16T03:15:04.092Z,1015.8
2018-09-16T03:16:06.179Z,1015.7
2018-09-16T03:17:08.300Z,1015.7
2018-09-16T03:18:10.375Z,1015.7
2018-09-16T03:19:12.467Z,1015.7
2018-09-16T03:20:14.557Z,1015.7
2018-09-16T03:21:16.675Z,1015.7
2018-09-16T03:22:18.755Z,1015.7
2018-09-16T03:23:20.847Z,1015.7
2018-09-16T03:24:22.951Z,1015.7
2018-09-16T03:25:25.027Z,1015.7
2018-09-16T03:26:27.133Z,1015.7
2018-09-16T03:27:29.219Z,1015.7
2018-09-16T03:28:31.304Z,1015.7
2018-09-16T03:29:33.699Z,1015.7
2018-09-16T03:30:36.127Z,1015.7
2018-09-16T03:31:38.604Z,1015.7
2018-09-16T03:32:41.290Z,1015.7
2018-09-16T03:33:43.382Z,1015.7
2018-09-16T03:34:45.460Z,1015.7
2018-09-16T03:35:47.549Z,1015.7
2018-09-16T03:36:49.973Z,1015.7
2018-09-16T03:37:52.339Z,1015.8
2018-09-16T03:38:55.111Z,1015.8
2018-09-16T03:39:57.209Z,1015.8
2018-09-16T03:40:59.301Z,1015.7
2018-09-16T03:42:01.696Z,1015.8
2018-09-16T03:43:03.786Z,1015.7
2018-09-16T03:44:06.199Z,1015.7
2018-09-16T03:45:08.289Z,1015.7
2018-09-16T03:46:10.383Z,1015.7
2018-09-16T03:47:12.484Z,1015.7
2018-09-16T03:48:14.574Z,1015.7
2018-09-16T03:49:16.662Z,1015.7
2018-09-16T03:50:18.762Z,1015.7
2018-09-16T03:51:20.841Z,1015.8
2018-09-16T03:52:23.328Z,1015.7
2018-09-16T03:53:26.019Z,1015.8
2018-09-16T03:54:28.126Z,1015.8
2018-09-16T03:55:30.208Z,1015.8
2018-09-16T03:56:32.303Z,1015.8
2018-09-16T03:57:34.688Z,1015.8
2018-09-16T03:58:37.061Z,1015.8
2018-09-16T03:59:39.169Z,1015.8
2018-09-16T04:00:41.257Z,1015.8
2018-09-16T04:01:43.350Z,1015.8
2018-09-16T04:02:45.450Z,1015.8
2018-09-16T04:03:47.550Z,1015.8
2018-09-16T04:04:49.925Z,1015.8
2018-09-16T04:05:52.030Z,1015.8
2018-09-16T04:06:54.125Z,1015.8
2018-09-16T04:07:56.208Z,1015.8
2018-09-16T04:08:58.298Z,1015.8
2018-09-16T04:10:00.398Z,1015.8
2018-09-16T04:11:02.484Z,1015.8
2018-09-16T04:12:04.584Z,1015.8
2018-09-16T04:13:06.675Z,1015.7
2018-09-16T04:14:08.764Z,1015.8
2018-09-16T04:15:11.256Z,1015.8
2018-09-16T04:16:13.345Z,1015.8
2018-09-16T04:17:16.417Z,1015.8
2018-09-16T04:18:18.788Z,1015.8
2018-09-16T04:19:20.891Z,1015.8
2018-09-16T04:20:22.975Z,1015.8
2018-09-16T04:21:25.070Z,1015.8
2018-09-16T04:22:27.170Z,1015.8
2018-09-16T04:23:29.260Z,1015.8
2018-09-16T04:24:31.342Z,1015.8
2018-09-16T04:25:34.115Z,1015.8
2018-09-16T04:26:36.490Z,1015.8
2018-09-16T04:27:38.653Z,1015.8
2018-09-16T04:28:41.512Z,1015.8
2018-09-16T04:29:43.993Z,1015.8
2018-09-16T04:30:46.088Z,1015.8
2018-09-16T04:31:48.162Z,1015.9
2018-09-16T04:32:50.264Z,1015.9
2018-09-16T04:33:53.323Z,1015.9
2018-09-16T04:34:55.418Z,1015.9
2018-09-16T04:35:57.811Z,1015.9
2018-09-16T04:36:59.913Z,1015.9
2018-09-16T04:38:02.001Z,1015.9
2018-09-16T04:39:04.485Z,1015.9
2018-09-16T04:40:06.584Z,1016
2018-09-16T04:41:08.958Z,1015.9
2018-09-16T04:42:11.054Z,1015.9
2018-09-16T04:43:13.442Z,1015.9
2018-09-16T04:44:15.528Z,1015.9
2018-09-16T04:45:17.618Z,1015.9
2018-09-16T04:46:19.710Z,1015.9
2018-09-16T04:47:21.795Z,1015.9
2018-09-16T04:48:23.903Z,1015.8
2018-09-16T04:49:25.993Z,1015.9
2018-09-16T04:50:28.797Z,1015.9
2018-09-16T04:51:31.170Z,1015.9
2018-09-16T04:52:33.274Z,1015.9
2018-09-16T04:53:35.357Z,1015.9
2018-09-16T04:54:37.456Z,1015.9
2018-09-16T04:55:39.561Z,1015.9
2018-09-16T04:56:41.939Z,1015.9
2018-09-16T04:57:44.043Z,1015.9
2018-09-16T04:58:46.135Z,1015.9
2018-09-16T04:59:48.239Z,1015.9
2018-09-16T05:00:50.310Z,1015.9
2018-09-16T05:01:52.725Z,1015.9
2018-09-16T05:02:54.829Z,1015.9
2018-09-16T05:03:56.926Z,1016
2018-09-16T05:04:59.396Z,1016
2018-09-16T05:06:01.507Z,1015.9
2018-09-16T05:07:03.990Z,1016
2018-09-16T05:08:06.069Z,1016
2018-09-16T05:09:08.160Z,1016
2018-09-16T05:10:10.264Z,1016
2018-09-16T05:11:12.353Z,1016
2018-09-16T05:12:14.454Z,1016
2018-09-16T05:13:16.545Z,1016
2018-09-16T05:14:18.629Z,1016
2018-09-16T05:15:21.102Z,1016
2018-09-16T05:16:23.202Z,1016
2018-09-16T05:17:25.289Z,1016
2018-09-16T05:18:27.390Z,1016
2018-09-16T05:19:29.487Z,1016
2018-09-16T05:20:31.567Z,1016.1
2018-09-16T05:21:33.676Z,1016.1
2018-09-16T05:22:36.210Z,1016.1
2018-09-16T05:23:38.239Z,1016.1
2018-09-16T05:24:40.380Z,1016.1
2018-09-16T05:25:42.484Z,1016.1
2018-09-16T05:26:44.572Z,1016.1
2018-09-16T05:27:46.668Z,1016.2
2018-09-16T05:28:49.065Z,1016.1
2018-09-16T05:29:51.535Z,1016.2
2018-09-16T05:30:53.638Z,1016.2
2018-09-16T05:31:55.734Z,1016.1
2018-09-16T05:32:57.832Z,1016.2
2018-09-16T05:33:59.913Z,1016.1
2018-09-16T05:35:02.305Z,1016.1
2018-09-16T05:36:05.071Z,1016.1
2018-09-16T05:37:07.155Z,1016.2
2018-09-16T05:38:09.865Z,1016.2
2018-09-16T05:39:12.334Z,1016.2
2018-09-16T05:40:14.427Z,1016.2
2018-09-16T05:41:16.529Z,1016.2
2018-09-16T05:42:18.626Z,1016.2
2018-09-16T05:43:20.779Z,1016.2
2018-09-16T05:44:23.169Z,1016.2
2018-09-16T05:45:25.255Z,1016.2
2018-09-16T05:46:27.350Z,1016.2
2018-09-16T05:47:29.738Z,1016.2
2018-09-16T05:48:32.613Z,1016.3
2018-09-16T05:49:35.006Z,1016.2
2018-09-16T05:50:37.500Z,1016.3
2018-09-16T05:51:39.586Z,1016.3
2018-09-16T05:52:42.114Z,1016.3
2018-09-16T05:53:44.165Z,1016.3
2018-09-16T05:54:46.257Z,1016.3
2018-09-16T05:55:48.643Z,1016.3
2018-09-16T05:56:50.733Z,1016.3
2018-09-16T05:57:52.845Z,1016.3
2018-09-16T05:58:54.924Z,1016.3
2018-09-16T05:59:57.025Z,1016.3
2018-09-16T06:00:59.122Z,1016.3
2018-09-16T06:02:01.206Z,1016.3
2018-09-16T06:03:03.308Z,1016.3
2018-09-16T06:04:05.392Z,1016.3
2018-09-16T06:05:07.501Z,1016.3
2018-09-16T06:06:09.581Z,1016.3
2018-09-16T06:07:11.683Z,1016.3
2018-09-16T06:08:14.078Z,1016.3
2018-09-16T06:09:16.181Z,1016.3
2018-09-16T06:10:18.281Z,1016.3
2018-09-16T06:11:20.365Z,1016.3
2018-09-16T06:12:22.469Z,1016.3
2018-09-16T06:13:24.564Z,1016.4
2018-09-16T06:14:26.652Z,1016.4
2018-09-16T06:15:28.747Z,1016.4
2018-09-16T06:16:30.851Z,1016.3
2018-09-16T06:17:32.947Z,1016.4
2018-09-16T06:18:35.320Z,1016.4
2018-09-16T06:19:37.423Z,1016.4
2018-09-16T06:20:39.530Z,1016.4
2018-09-16T06:21:41.624Z,1016.3
2018-09-16T06:22:43.834Z,1016.3
2018-09-16T06:23:45.818Z,1016.3
2018-09-16T06:24:48.615Z,1016.3
2018-09-16T06:25:50.700Z,1016.3
2018-09-16T06:26:53.194Z,1016.3
2018-09-16T06:27:55.279Z,1016.2
2018-09-16T06:28:57.381Z,1016.3
2018-09-16T06:29:59.767Z,1016.2
2018-09-16T06:31:01.865Z,1016.2
2018-09-16T06:32:04.242Z,1016.2
2018-09-16T06:33:06.342Z,1016.2
2018-09-16T06:34:08.438Z,1016.2
2018-09-16T06:35:10.529Z,1016.2
2018-09-16T06:36:12.638Z,1016.2
2018-09-16T06:37:14.723Z,1016.2
2018-09-16T06:38:17.124Z,1016.1
2018-09-16T06:39:19.213Z,1016.2
2018-09-16T06:40:21.612Z,1016.1
2018-09-16T06:41:24.034Z,1016.1
2018-09-16T06:42:26.086Z,1016.1
2018-09-16T06:43:28.578Z,1016.1
2018-09-16T06:44:30.950Z,1016.2
2018-09-16T06:45:33.051Z,1016.2
2018-09-16T06:46:35.435Z,1016.1
2018-09-16T06:47:37.518Z,1016.2
2018-09-16T06:48:39.617Z,1016.1
2018-09-16T06:49:42.006Z,1016.2
2018-09-16T06:50:44.389Z,1016.2
2018-09-16T06:51:46.485Z,1016.2
2018-09-16T06:52:48.579Z,1016.2
2018-09-16T06:53:50.665Z,1016.2
2018-09-16T06:54:52.764Z,1016.2
2018-09-16T06:55:55.144Z,1016.2
2018-09-16T06:56:57.250Z,1016.2
2018-09-16T06:57:59.340Z,1016.2
2018-09-16T06:59:01.743Z,1016.1
2018-09-16T07:00:03.852Z,1016.2
2018-09-16T07:01:05.946Z,1016.2
2018-09-16T07:02:08.045Z,1016.1
2018-09-16T07:03:10.142Z,1016.1
2018-09-16T07:04:12.250Z,1016.1
2018-09-16T07:05:14.336Z,1016.1
2018-09-16T07:06:16.457Z,1016.1
2018-09-16T07:07:18.557Z,1016.2
2018-09-16T07:08:20.707Z,1016.1
2018-09-16T07:09:22.751Z,1016.1
2018-09-16T07:10:25.136Z,1016
2018-09-16T07:11:27.534Z,1016.1
2018-09-16T07:12:29.623Z,1016.1
2018-09-16T07:13:31.728Z,1016.1
2018-09-16T07:14:34.240Z,1016
2018-09-16T07:15:36.202Z,1016.1
2018-09-16T07:16:38.306Z,1016.1
2018-09-16T07:17:40.678Z,1016.1
2018-09-16T07:18:42.784Z,1016.1
2018-09-16T07:19:45.171Z,1016.1
2018-09-16T07:20:47.254Z,1016.1
2018-09-16T07:21:49.638Z,1016.1
2018-09-16T07:22:51.742Z,1016
2018-09-16T07:23:53.834Z,1016.1
2018-09-16T07:24:55.937Z,1016.1
2018-09-16T07:25:58.034Z,1016.1
2018-09-16T07:27:00.127Z,1016.1
2018-09-16T07:28:02.225Z,1016.1
2018-09-16T07:29:04.758Z,1016.1
2018-09-16T07:30:07.204Z,1016.1
2018-09-16T07:31:09.893Z,1016.1
2018-09-16T07:32:11.994Z,1016.1
2018-09-16T07:33:14.098Z,1016.1
2018-09-16T07:34:16.288Z,1016.1
2018-09-16T07:35:18.858Z,1016.2
2018-09-16T07:36:20.956Z,1016.2
2018-09-16T07:37:23.063Z,1016.2
2018-09-16T07:38:25.151Z,1016.1
2018-09-16T07:39:27.256Z,1016.2
2018-09-16T07:40:29.354Z,1016.2
2018-09-16T07:41:31.455Z,1016.1
2018-09-16T07:42:33.958Z,1016.1
2018-09-16T07:43:36.047Z,1016.1
2018-09-16T07:44:38.540Z,1016.1
2018-09-16T07:45:40.636Z,1016.1
2018-09-16T07:46:43.142Z,1016.1
2018-09-16T07:47:45.242Z,1016.1
2018-09-16T07:48:47.357Z,1016.1
2018-09-16T07:49:49.483Z,1016
2018-09-16T07:50:51.573Z,1016
2018-09-16T07:51:53.683Z,1016.1
2018-09-16T07:52:56.189Z,1016.1
2018-09-16T07:53:58.226Z,1016
2018-09-16T07:55:00.338Z,1016.1
2018-09-16T07:56:02.446Z,1016
2018-09-16T07:57:04.540Z,1016
2018-09-16T07:58:06.650Z,1016
2018-09-16T07:59:08.751Z,1016.1
2018-09-16T08:00:10.850Z,1016.1
2018-09-16T08:01:12.992Z,1016.1
2018-09-16T08:02:15.102Z,1016.1
2018-09-16T08:03:17.199Z,1016.1
2018-09-16T08:04:19.303Z,1016.1
2018-09-16T08:05:21.414Z,1016.1
2018-09-16T08:06:23.909Z,1016.1
2018-09-16T08:07:26.345Z,1016.1
2018-09-16T08:08:28.445Z,1016.1
2018-09-16T08:09:30.553Z,1016.1
2018-09-16T08:10:32.646Z,1016.1
2018-09-16T08:11:35.083Z,1016.1
2018-09-16T08:12:37.182Z,1016.1
2018-09-16T08:13:39.753Z,1016.1
2018-09-16T08:14:41.826Z,1016.1
2018-09-16T08:15:43.913Z,1016.1
2018-09-16T08:16:46.032Z,1016
2018-09-16T08:17:48.156Z,1016
2018-09-16T08:18:50.296Z,1016
2018-09-16T08:19:52.476Z,1016.1
2018-09-16T08:20:54.663Z,1016
2018-09-16T08:21:56.705Z,1016
2018-09-16T08:22:58.849Z,1016
2018-09-16T08:24:00.920Z,1016.1
2018-09-16T08:25:03.028Z,1016.1
2018-09-16T08:26:05.136Z,1016.1
2018-09-16T08:27:07.248Z,1016
2018-09-16T08:28:09.753Z,1016.1
2018-09-16T08:29:11.858Z,1016
2018-09-16T08:30:13.968Z,1016
2018-09-16T08:31:16.074Z,1016
2018-09-16T08:32:18.177Z,1016
2018-09-16T08:33:20.319Z,1016
2018-09-16T08:34:22.426Z,1016
2018-09-16T08:35:24.931Z,1016
2018-09-16T08:36:27.057Z,1016
2018-09-16T08:37:29.159Z,1016
2018-09-16T08:38:31.301Z,1016
2018-09-16T08:39:33.414Z,1016
2018-09-16T08:40:35.510Z,1016
2018-09-16T08:41:37.626Z,1016
2018-09-16T08:42:39.730Z,1016
2018-09-16T08:43:41.918Z,1015.9
2018-09-16T08:44:44.032Z,1016
2018-09-16T08:45:46.623Z,1016
2018-09-16T08:46:48.565Z,1015.9
2018-09-16T08:47:50.700Z,1016
2018-09-16T08:48:52.808Z,1016
2018-09-16T08:49:54.932Z,1016
2018-09-16T08:50:57.043Z,1016.1
2018-09-16T08:51:59.441Z,1015.9
2018-09-16T08:53:01.846Z,1016
2018-09-16T08:54:03.969Z,1016
2018-09-16T08:55:06.075Z,1016
2018-09-16T08:56:08.176Z,1016
2018-09-16T08:57:10.647Z,1015.9
2018-09-16T08:58:12.885Z,1015.9
2018-09-16T08:59:15.856Z,1015.9
2018-09-16T09:00:19.451Z,1015.8
2018-09-16T09:01:21.866Z,1015.9
2018-09-16T09:02:23.968Z,1015.9
2018-09-16T09:03:26.081Z,1015.8
2018-09-16T09:04:28.299Z,1015.9
2018-09-16T09:05:31.124Z,1015.8
2018-09-16T09:06:34.095Z,1015.9
2018-09-16T09:07:36.645Z,1015.8
2018-09-16T09:08:38.746Z,1015.8
2018-09-16T09:09:41.203Z,1015.8
2018-09-16T09:10:43.464Z,1015.8
2018-09-16T09:11:45.571Z,1015.8
2018-09-16T09:12:47.693Z,1015.8
2018-09-16T09:13:49.784Z,1015.7
2018-09-16T09:14:51.894Z,1015.7
2018-09-16T09:15:54.008Z,1015.8
2018-09-16T09:16:56.125Z,1015.8
2018-09-16T09:17:58.228Z,1015.8
2018-09-16T09:19:00.338Z,1015.7
2018-09-16T09:20:03.038Z,1015.7
2018-09-16T09:21:05.141Z,1015.7
2018-09-16T09:22:07.853Z,1015.7
2018-09-16T09:23:09.973Z,1015.7
2018-09-16T09:24:12.818Z,1015.7
2018-09-16T09:25:14.932Z,1015.7
2018-09-16T09:26:17.053Z,1015.6
2018-09-16T09:27:19.168Z,1015.7
2018-09-16T09:28:21.440Z,1015.7
2018-09-16T09:29:23.841Z,1015.6
2018-09-16T09:30:26.541Z,1015.6
2018-09-16T09:31:28.643Z,1015.7
2018-09-16T09:32:30.951Z,1015.7
2018-09-16T09:33:33.077Z,1015.7
2018-09-16T09:34:35.576Z,1015.7
2018-09-16T09:35:37.715Z,1015.7
2018-09-16T09:36:39.817Z,1015.8
2018-09-16T09:37:42.213Z,1015.6
2018-09-16T09:38:44.919Z,1015.6
2018-09-16T09:39:47.036Z,1015.7
2018-09-16T09:40:49.178Z,1015.6
2018-09-16T09:41:51.673Z,1015.6
2018-09-16T09:42:53.915Z,1015.6
2018-09-16T09:43:55.973Z,1015.6
2018-09-16T09:44:58.356Z,1015.7
2018-09-16T09:46:00.477Z,1015.6
2018-09-16T09:47:02.574Z,1015.6
2018-09-16T09:48:04.698Z,1015.6
2018-09-16T09:49:07.690Z,1015.6
2018-09-16T09:50:09.950Z,1015.5
2018-09-16T09:51:12.057Z,1015.5
2018-09-16T09:52:14.564Z,1015.5
2018-09-16T09:53:17.227Z,1015.5
2018-09-16T09:54:19.563Z,1015.5
2018-09-16T09:55:21.692Z,1015.5
2018-09-16T09:56:23.790Z,1015.6
2018-09-16T09:57:25.898Z,1015.5
2018-09-16T09:58:28.039Z,1015.5
2018-09-16T09:59:30.228Z,1015.5
2018-09-16T10:00:32.269Z,1015.5
2018-09-16T10:01:34.711Z,1015.5
2018-09-16T10:02:37.478Z,1015.5
2018-09-16T10:03:39.579Z,1015.5
2018-09-16T10:04:41.689Z,1015.5
2018-09-16T10:05:43.805Z,1015.5
2018-09-16T10:06:45.971Z,1015.5
2018-09-16T10:07:48.084Z,1015.4
2018-09-16T10:08:50.480Z,1015.4
2018-09-16T10:09:52.600Z,1015.4
2018-09-16T10:10:55.017Z,1015.4
2018-09-16T10:11:57.607Z,1015.5
2018-09-16T10:12:59.732Z,1015.4
2018-09-16T10:14:01.839Z,1015.4
2018-09-16T10:15:03.945Z,1015.4
2018-09-16T10:16:06.649Z,1015.4
2018-09-16T10:17:08.757Z,1015.5
2018-09-16T10:18:11.153Z,1015.3
2018-09-16T10:19:13.587Z,1015.4
2018-09-16T10:20:15.684Z,1015.4
2018-09-16T10:21:17.802Z,1015.3
2018-09-16T10:22:19.916Z,1015.3
2018-09-16T10:23:22.035Z,1015.4
2018-09-16T10:24:24.262Z,1015.4
2018-09-16T10:25:27.650Z,1015.3
2018-09-16T10:26:29.758Z,1015.3
2018-09-16T10:27:31.859Z,1015.3
2018-09-16T10:28:34.066Z,1015.3
2018-09-16T10:29:36.167Z,1015.2
2018-09-16T10:30:38.283Z,1015.2
2018-09-16T10:31:40.984Z,1015.3
2018-09-16T10:32:43.112Z,1015.3
2018-09-16T10:33:45.318Z,1015.3
2018-09-16T10:34:48.116Z,1015.2
2018-09-16T10:35:50.535Z,1015.2
2018-09-16T10:36:52.992Z,1015.1
2018-09-16T10:37:55.266Z,1015.1
2018-09-16T10:38:57.542Z,1015.2
2018-09-16T10:39:59.488Z,1015.2
2018-09-16T10:41:01.600Z,1015.1
2018-09-16T10:42:03.716Z,1015.1
2018-09-16T10:43:05.823Z,1015
2018-09-16T10:44:07.947Z,1015.1
2018-09-16T10:45:10.062Z,1015.1
2018-09-16T10:46:12.290Z,1015
2018-09-16T10:47:14.720Z,1015.1
2018-09-16T10:48:16.885Z,1015
2018-09-16T10:49:19.384Z,1015.1
2018-09-16T10:50:21.513Z,1015
2018-09-16T10:51:23.795Z,1015
2018-09-16T10:52:25.905Z,1015
2018-09-16T10:53:28.040Z,1015
2018-09-16T10:54:30.148Z,1015
2018-09-16T10:55:32.271Z,1015
2018-09-16T10:56:34.375Z,1015
2018-09-16T10:57:36.790Z,1015
2018-09-16T10:58:38.894Z,1015
2018-09-16T10:59:41.156Z,1015
2018-09-16T11:00:43.286Z,1014.9
2018-09-16T11:01:45.387Z,1014.8
2018-09-16T11:02:47.508Z,1014.9
2018-09-16T11:03:49.915Z,1014.8
2018-09-16T11:04:52.470Z,1014.8
2018-09-16T11:05:54.576Z,1014.8
2018-09-16T11:06:56.700Z,1014.9
2018-09-16T11:07:58.865Z,1014.8
2018-09-16T11:09:01.415Z,1014.8
2018-09-16T11:10:03.544Z,1014.8
2018-09-16T11:11:05.956Z,1014.8
2018-09-16T11:12:08.358Z,1014.8
2018-09-16T11:13:10.478Z,1014.8
2018-09-16T11:14:12.598Z,1014.8
2018-09-16T11:15:14.703Z,1014.8
2018-09-16T11:16:17.135Z,1014.7
2018-09-16T11:17:19.366Z,1014.7
2018-09-16T11:18:21.769Z,1014.7
2018-09-16T11:19:24.288Z,1014.7
2018-09-16T11:20:26.694Z,1014.7
2018-09-16T11:21:29.219Z,1014.7
2018-09-16T11:22:31.321Z,1014.7
2018-09-16T11:23:33.830Z,1014.6
2018-09-16T11:24:35.955Z,1014.6
2018-09-16T11:25:38.066Z,1014.6
2018-09-16T11:26:40.350Z,1014.6
2018-09-16T11:27:42.753Z,1014.7
2018-09-16T11:28:45.150Z,1014.6
2018-09-16T11:29:47.597Z,1014.6
2018-09-16T11:30:50.146Z,1014.6
2018-09-16T11:31:52.259Z,1014.5
2018-09-16T11:32:54.953Z,1014.5
2018-09-16T11:33:57.075Z,1014.5
2018-09-16T11:34:59.185Z,1014.5
2018-09-16T11:36:01.313Z,1014.4
2018-09-16T11:37:03.426Z,1014.5
2018-09-16T11:38:05.556Z,1014.5
2018-09-16T11:39:07.970Z,1014.5
2018-09-16T11:40:10.095Z,1014.4
2018-09-16T11:41:12.200Z,1014.4
2018-09-16T11:42:14.312Z,1014.4
2018-09-16T11:43:16.444Z,1014.4
2018-09-16T11:44:18.669Z,1014.3
2018-09-16T11:45:21.072Z,1014.4
2018-09-16T11:46:23.202Z,1014.4
2018-09-16T11:47:25.321Z,1014.4
2018-09-16T11:48:27.431Z,1014.4
2018-09-16T11:49:29.551Z,1014.4
2018-09-16T11:50:31.652Z,1014.3
2018-09-16T11:51:33.876Z,1014.3
2018-09-16T11:52:36.737Z,1014.4
2018-09-16T11:53:39.241Z,1014.4
2018-09-16T11:54:41.342Z,1014.3
2018-09-16T11:55:43.471Z,1014.4
2018-09-16T11:56:45.640Z,1014.4
2018-09-16T11:57:47.828Z,1014.4
2018-09-16T11:58:49.943Z,1014.4
2018-09-16T11:59:52.072Z,1014.3
2018-09-16T12:00:54.183Z,1014.3
2018-09-16T12:01:56.346Z,1014.3
2018-09-16T12:02:58.848Z,1014.3
2018-09-16T12:04:00.981Z,1014.4
2018-09-16T12:05:03.083Z,1014.3
2018-09-16T12:06:05.199Z,1014.3
2018-09-16T12:07:07.323Z,1014.2
2018-09-16T12:08:09.421Z,1014.3
2018-09-16T12:09:11.545Z,1014.3
2018-09-16T12:10:13.673Z,1014.2
2018-09-16T12:11:16.267Z,1014.2
2018-09-16T12:12:18.371Z,1014.2
2018-09-16T12:13:20.782Z,1014.2
2018-09-16T12:14:22.888Z,1014.2
2018-09-16T12:15:25.137Z,1014.2
2018-09-16T12:16:27.270Z,1014.2
2018-09-16T12:17:29.375Z,1014.2
2018-09-16T12:18:31.495Z,1014.2
2018-09-16T12:19:33.620Z,1014.1
2018-09-16T12:20:35.736Z,1014.2
2018-09-16T12:21:38.230Z,1014.1
2018-09-16T12:22:41.024Z,1014.1
2018-09-16T12:23:43.132Z,1014.1
2018-09-16T12:24:45.254Z,1014.1
2018-09-16T12:25:47.378Z,1014.1
2018-09-16T12:26:49.489Z,1014.2
2018-09-16T12:27:51.595Z,1014
2018-09-16T12:28:54.019Z,1014.1
2018-09-16T12:29:56.421Z,1014.1
2018-09-16T12:30:58.669Z,1014.1
2018-09-16T12:32:01.101Z,1014.1
2018-09-16T12:33:03.587Z,1014.1
2018-09-16T12:34:06.099Z,1014.1
2018-09-16T12:35:08.500Z,1014
2018-09-16T12:36:10.624Z,1014
2018-09-16T12:37:12.738Z,1014
2018-09-16T12:38:14.841Z,1013.9
2018-09-16T12:39:17.245Z,1013.9
2018-09-16T12:40:20.041Z,1013.8
2018-09-16T12:41:22.421Z,1013.9
2018-09-16T12:42:24.545Z,1013.9
2018-09-16T12:43:26.663Z,1013.9
2018-09-16T12:44:28.779Z,1013.9
2018-09-16T12:45:30.879Z,1013.9
2018-09-16T12:46:33.001Z,1013.9
2018-09-16T12:47:35.106Z,1013.9
2018-09-16T12:48:37.211Z,1013.8
2018-09-16T12:49:39.345Z,1013.8
2018-09-16T12:50:41.440Z,1013.8
2018-09-16T12:51:43.578Z,1013.8
2018-09-16T12:52:46.011Z,1013.8
2018-09-16T12:53:48.123Z,1013.8
2018-09-16T12:54:50.234Z,1013.8
2018-09-16T12:55:52.351Z,1013.7
2018-09-16T12:56:54.470Z,1013.7
2018-09-16T12:57:56.565Z,1013.8
2018-09-16T12:58:58.690Z,1013.8
2018-09-16T13:00:00.804Z,1013.7
2018-09-16T13:01:03.587Z,1013.7
2018-09-16T13:02:05.710Z,1013.7
2018-09-16T13:03:07.818Z,1013.7